Terminal Aerodrome Forecast
Issued by NWS Cleveland, OH

Home | Current Version | Previous Version | Text Only | Print | Product List | Glossary Off
Versions: 1 2 3 4 5 6 7 8 9 10 11 12 13 14 15 16 17 18 19 20 21 22

000
FTUS41 KCLE 132332
TAFTOL
TAF
KTOL 132332Z 1400/1424 13009KT 1SM -SN OVC010
      TEMPO 1400/1403 1/2SM SN OVC007
     FM140400 04012KT 3SM -SN OVC010
     FM140700 35014KT P6SM OVC035
     FM141500 33009KT P6SM SCT035=

USA.gov is the U.S. government's official web portal to all federal, state and local government web resources and services.